createdAt,value
2018-02-06T00:01:44.470Z,15.80
2018-02-06T00:02:44.321Z,17.90
2018-02-06T00:04:37.585Z,17.90
2018-02-06T00:05:37.492Z,17.90
2018-02-06T00:07:30.754Z,16.30
2018-02-06T00:08:30.659Z,17.50
2018-02-06T00:10:24.021Z,16.20
2018-02-06T00:11:23.830Z,16.00
2018-02-06T00:13:17.095Z,16.60
2018-02-06T00:14:16.997Z,16.70
2018-02-06T00:16:10.357Z,18.40
2018-02-06T00:17:10.167Z,16.60
2018-02-06T00:19:03.431Z,15.80
2018-02-06T00:20:03.339Z,16.20
2018-02-06T00:21:56.589Z,14.60
2018-02-06T00:22:56.507Z,15.00
2018-02-06T00:24:49.770Z,17.80
2018-02-06T00:25:49.675Z,15.20
2018-02-06T00:27:42.938Z,17.20
2018-02-06T00:28:42.843Z,17.50
2018-02-06T00:30:36.090Z,15.30
2018-02-06T00:31:36.017Z,15.40
2018-02-06T00:33:29.277Z,13.50
2018-02-06T00:34:29.184Z,15.30
2018-02-06T00:36:22.428Z,14.30
2018-02-06T00:37:22.352Z,16.40
2018-02-06T00:39:15.729Z,20.40
2018-02-06T00:40:15.519Z,16.90
2018-02-06T00:42:08.877Z,15.50
2018-02-06T00:43:08.691Z,18.90
2018-02-06T00:45:01.956Z,19.50
2018-02-06T00:46:01.862Z,15.50
2018-02-06T00:47:55.126Z,17.50
2018-02-06T00:48:55.031Z,17.10
2018-02-06T00:50:48.398Z,16.40
2018-02-06T00:51:48.322Z,17.40
2018-02-06T00:53:41.580Z,18.80
2018-02-06T00:54:41.479Z,16.90
2018-02-06T00:56:34.838Z,18.40
2018-02-06T00:57:34.656Z,17.10
2018-02-06T00:59:27.921Z,18.50
2018-02-06T01:00:27.825Z,17.30
2018-02-06T01:02:22.076Z,20.80
2018-02-06T01:03:21.994Z,18.40
2018-02-06T01:05:15.245Z,18.10
2018-02-06T01:06:15.150Z,17.40
2018-02-06T01:08:08.425Z,17.90
2018-02-06T01:09:08.329Z,18.10
2018-02-06T01:11:01.691Z,17.70
2018-02-06T01:12:01.499Z,18.10
2018-02-06T01:13:54.750Z,19.30
2018-02-06T01:14:54.654Z,19.50
2018-02-06T01:16:47.900Z,16.10
2018-02-06T01:17:47.825Z,17.90
2018-02-06T01:19:41.078Z,18.10
2018-02-06T01:20:40.983Z,17.10
2018-02-06T01:22:34.217Z,17.00
2018-02-06T01:23:34.144Z,17.80
2018-02-06T01:25:27.406Z,17.90
2018-02-06T01:26:27.310Z,17.40
2018-02-06T01:28:20.574Z,17.40
2018-02-06T01:29:20.479Z,15.40
2018-02-06T01:31:13.713Z,16.90
2018-02-06T01:32:13.637Z,19.50
2018-02-06T01:34:07.013Z,19.30
2018-02-06T01:35:06.804Z,18.00
2018-02-06T01:37:00.050Z,16.80
2018-02-06T01:37:59.973Z,20.10
2018-02-06T01:39:53.353Z,17.70
2018-02-06T01:40:53.145Z,16.50
2018-02-06T01:42:46.385Z,17.30
2018-02-06T01:43:46.309Z,17.70
2018-02-06T01:45:39.687Z,18.70
2018-02-06T01:46:39.470Z,17.40
2018-02-06T01:48:32.731Z,15.40
2018-02-06T01:49:32.637Z,18.10
2018-02-06T01:51:25.869Z,18.70
2018-02-06T01:52:25.793Z,17.70
2018-02-06T01:54:19.057Z,18.70
2018-02-06T01:55:18.958Z,15.40
2018-02-06T01:57:12.204Z,17.00
2018-02-06T01:58:12.126Z,17.40
2018-02-06T02:00:05.380Z,15.80
2018-02-06T02:01:05.285Z,16.50
2018-02-06T02:02:58.643Z,16.60
2018-02-06T02:03:58.454Z,17.50
2018-02-06T02:05:51.716Z,17.00
2018-02-06T02:06:51.623Z,17.20
2018-02-06T02:08:44.887Z,18.80
2018-02-06T02:09:44.790Z,17.40
2018-02-06T02:11:38.149Z,16.10
2018-02-06T02:12:37.957Z,17.40
2018-02-06T02:14:31.219Z,16.90
2018-02-06T02:15:31.125Z,17.60
2018-02-06T02:17:24.404Z,18.80
2018-02-06T02:18:24.316Z,14.90
2018-02-06T02:20:17.573Z,17.90
2018-02-06T02:21:17.478Z,15.90
2018-02-06T02:23:10.725Z,17.30
2018-02-06T02:24:10.644Z,16.40
2018-02-06T02:26:05.025Z,16.20
2018-02-06T02:27:04.801Z,17.10
2018-02-06T02:28:58.180Z,18.00
2018-02-06T02:29:57.968Z,18.40
2018-02-06T02:31:51.221Z,20.00
2018-02-06T02:32:51.133Z,18.70
2018-02-06T02:34:44.417Z,16.30
2018-02-06T02:35:44.320Z,18.10
2018-02-06T02:37:37.565Z,18.20
2018-02-06T02:38:37.486Z,17.60
2018-02-06T02:40:30.862Z,17.70
2018-02-06T02:41:30.653Z,17.50
2018-02-06T04:38:50.570Z,18.30
2018-02-06T04:39:50.497Z,18.40
2018-02-06T04:41:43.759Z,18.40
2018-02-06T04:42:43.664Z,18.40
2018-02-06T04:44:36.909Z,20.50
2018-02-06T04:45:36.832Z,20.40
2018-02-06T04:47:30.092Z,19.30
2018-02-06T04:48:29.998Z,20.20
2018-02-06T04:50:23.374Z,26.30
2018-02-06T04:51:23.159Z,25.30
2018-02-06T04:53:16.397Z,20.10
2018-02-06T04:54:16.320Z,18.50
2018-02-06T04:56:09.584Z,20.40
2018-02-06T04:57:09.487Z,18.80
2018-02-06T04:59:02.730Z,19.60
2018-02-06T05:00:02.656Z,19.00
2018-02-06T05:01:55.916Z,17.60
2018-02-06T05:02:55.822Z,20.00
2018-02-06T05:04:49.177Z,19.30
2018-02-06T05:05:48.988Z,18.50
2018-02-06T05:07:42.250Z,18.30
2018-02-06T05:08:42.157Z,18.20
2018-02-06T05:10:35.432Z,19.20
2018-02-06T05:11:35.333Z,19.80
2018-02-06T05:13:28.576Z,18.90
2018-02-06T05:14:28.501Z,19.40
2018-02-06T05:16:21.766Z,20.10
2018-02-06T05:17:21.668Z,18.50
2018-02-06T05:19:15.025Z,19.60
2018-02-06T05:20:14.835Z,20.20
2018-02-06T05:22:08.095Z,17.60
2018-02-06T05:23:07.999Z,18.00
2018-02-06T05:25:01.242Z,20.50
2018-02-06T05:26:01.170Z,19.40
2018-02-06T05:27:54.429Z,17.10
2018-02-06T05:28:54.332Z,17.70
2018-02-06T05:30:47.594Z,19.40
2018-02-06T05:31:47.497Z,19.10
2018-02-06T05:33:40.855Z,19.20
2018-02-06T05:34:40.665Z,20.10
2018-02-06T05:36:35.040Z,18.40
2018-02-06T05:37:34.832Z,16.70
2018-02-06T05:39:28.073Z,19.20
2018-02-06T05:40:27.997Z,18.00
2018-02-06T05:42:21.265Z,18.80
2018-02-06T05:43:21.163Z,17.20
2018-02-06T05:45:14.431Z,19.80
2018-02-06T05:46:14.328Z,18.70
2018-02-06T05:48:07.689Z,16.60
2018-02-06T05:49:07.494Z,17.60
2018-02-06T05:51:00.872Z,17.70
2018-02-06T05:52:00.663Z,17.60
2018-02-06T05:53:53.906Z,15.80
2018-02-06T05:54:53.825Z,15.80
2018-02-06T05:56:47.094Z,19.00
2018-02-06T05:57:46.995Z,16.30
2018-02-06T05:59:40.244Z,17.20
2018-02-06T06:00:40.165Z,19.80
2018-02-06T06:02:33.542Z,18.90
2018-02-06T06:03:33.331Z,18.00
2018-02-06T06:05:26.607Z,17.10
2018-02-06T06:06:26.497Z,17.60
2018-02-06T06:08:19.746Z,18.70
2018-02-06T06:09:19.666Z,19.40
2018-02-06T06:11:12.926Z,18.60
2018-02-06T06:12:12.830Z,17.30
2018-02-06T06:14:06.115Z,19.80
2018-02-06T06:15:05.996Z,18.00
2018-02-06T06:16:59.371Z,17.50
2018-02-06T06:17:59.169Z,19.10
2018-02-06T06:19:52.395Z,17.50
2018-02-06T06:20:52.323Z,18.50
2018-02-06T06:22:45.697Z,18.30
2018-02-06T06:23:45.485Z,17.40
2018-02-06T06:25:38.754Z,19.00
2018-02-06T06:26:38.653Z,20.20
2018-02-06T06:28:31.895Z,18.10
2018-02-06T06:29:31.816Z,21.00
2018-02-06T06:31:25.078Z,20.60
2018-02-06T06:32:24.988Z,18.80
2018-02-06T06:34:18.227Z,17.10
2018-02-06T06:35:18.150Z,16.40
2018-02-06T06:37:11.526Z,19.20
2018-02-06T06:38:11.316Z,18.30
2018-02-06T06:40:04.552Z,17.80
2018-02-06T06:41:04.474Z,18.10
2018-02-06T06:42:57.737Z,18.70
2018-02-06T06:43:57.644Z,15.90
2018-02-06T06:45:50.903Z,22.60
2018-02-06T06:46:50.813Z,20.20
2018-02-06T06:48:44.057Z,19.30
2018-02-06T06:49:43.997Z,18.50
2018-02-06T06:51:37.353Z,16.50
2018-02-06T06:52:37.143Z,16.90
2018-02-06T06:54:30.397Z,17.90
2018-02-06T06:55:30.319Z,17.50
2018-02-06T06:57:23.583Z,19.40
2018-02-06T06:58:23.485Z,15.00
2018-02-06T07:00:16.720Z,17.20
2018-02-06T07:01:16.645Z,16.40
2018-02-06T07:03:10.020Z,17.20
2018-02-06T07:04:09.808Z,18.00
2018-02-06T07:06:03.085Z,19.50
2018-02-06T07:07:02.977Z,15.80
2018-02-06T07:08:56.255Z,21.90
2018-02-06T07:09:56.144Z,18.80
2018-02-06T07:11:49.407Z,18.20
2018-02-06T07:12:49.316Z,16.10
2018-02-06T07:14:42.668Z,19.50
2018-02-06T07:15:42.477Z,21.30
2018-02-06T07:17:35.738Z,17.80
2018-02-06T07:18:35.644Z,17.20
2018-02-06T07:20:28.876Z,18.80
2018-02-06T07:21:28.822Z,18.90
2018-02-06T07:23:22.061Z,19.80
2018-02-06T07:24:21.965Z,19.20
2018-02-06T07:26:15.342Z,18.10
2018-02-06T07:27:15.132Z,18.20
2018-02-06T07:29:08.397Z,16.70
2018-02-06T07:30:08.319Z,20.40
2018-02-06T07:32:01.633Z,17.70
2018-02-06T07:33:01.538Z,17.30
2018-02-06T07:34:54.779Z,18.90
2018-02-06T07:35:54.707Z,17.10
2018-02-06T07:37:48.082Z,16.10
2018-02-06T07:38:47.874Z,15.90
2018-02-06T07:40:41.236Z,17.50
2018-02-06T07:41:41.034Z,20.00
2018-02-06T07:43:34.418Z,17.50
2018-02-06T07:44:34.321Z,15.80
2018-02-06T07:46:27.582Z,17.00
2018-02-06T07:47:27.488Z,17.00
2018-02-06T07:49:20.731Z,15.10
2018-02-06T07:50:20.655Z,15.50
2018-02-06T07:52:14.031Z,16.60
2018-02-06T07:53:13.818Z,18.90
2018-02-06T07:55:07.063Z,17.30
2018-02-06T07:56:06.986Z,16.00
2018-02-06T07:58:00.248Z,16.70
2018-02-06T07:59:00.154Z,16.40
2018-02-06T08:00:53.402Z,17.10
2018-02-06T08:01:53.320Z,16.60
2018-02-06T08:03:46.582Z,15.50
2018-02-06T08:04:46.486Z,15.60
2018-02-06T08:06:39.749Z,17.90
2018-02-06T08:07:39.655Z,14.60
2018-02-06T08:09:32.897Z,17.00
2018-02-06T08:10:32.824Z,17.50
2018-02-06T08:12:26.102Z,16.70
2018-02-06T08:13:25.988Z,16.70
2018-02-06T08:15:19.223Z,14.60
2018-02-06T08:16:19.153Z,14.50
2018-02-06T08:18:12.421Z,17.60
2018-02-06T08:19:12.321Z,14.50
2018-02-06T08:21:05.681Z,16.30
2018-02-06T08:22:05.487Z,17.90
2018-02-06T08:23:58.754Z,14.60
2018-02-06T08:24:58.652Z,15.80
2018-02-06T08:26:51.922Z,17.80
2018-02-06T08:27:51.824Z,16.10
2018-02-06T08:29:45.060Z,16.50
2018-02-06T08:30:44.983Z,14.60
2018-02-06T08:32:38.237Z,15.00
2018-02-06T08:33:38.140Z,14.20
2018-02-06T08:35:31.498Z,15.70
2018-02-06T08:36:31.303Z,13.90
2018-02-06T08:38:24.556Z,15.50
2018-02-06T08:39:24.476Z,15.50
2018-02-06T08:41:17.702Z,13.60
2018-02-06T08:42:17.636Z,13.80
2018-02-06T08:44:10.874Z,14.30
2018-02-06T08:45:10.780Z,14.00
2018-02-06T08:47:04.068Z,14.20
2018-02-06T08:48:03.974Z,13.90
2018-02-06T08:49:57.331Z,14.30
2018-02-06T08:50:57.136Z,15.90
2018-02-06T08:52:50.423Z,13.90
2018-02-06T08:53:50.336Z,13.90
2018-02-06T08:55:43.564Z,17.00
2018-02-06T08:56:43.487Z,14.90
2018-02-06T08:58:36.745Z,15.90
2018-02-06T08:59:36.649Z,15.50
2018-02-06T09:01:29.886Z,14.30
2018-02-06T09:02:29.809Z,14.50
2018-02-06T09:04:23.065Z,16.00
2018-02-06T09:05:22.969Z,15.30
2018-02-06T09:07:16.221Z,15.00
2018-02-06T09:08:16.127Z,15.10
2018-02-06T09:10:09.366Z,14.00
2018-02-06T09:11:09.289Z,14.00
2018-02-06T09:13:02.612Z,14.40
2018-02-06T09:14:02.519Z,15.60
2018-02-06T09:15:55.880Z,15.70
2018-02-06T09:16:55.670Z,15.30
2018-02-06T09:18:48.933Z,13.50
2018-02-06T09:19:48.839Z,13.20
2018-02-06T09:21:42.070Z,12.40
2018-02-06T09:22:41.994Z,16.80
2018-02-06T09:24:35.247Z,12.50
2018-02-06T09:25:35.154Z,14.50
2018-02-06T09:27:28.425Z,14.40
2018-02-06T09:28:28.331Z,16.90
2018-02-06T09:30:21.568Z,15.80
2018-02-06T09:31:21.490Z,16.20
2018-02-06T09:33:14.743Z,16.00
2018-02-06T09:34:14.646Z,16.40
2018-02-06T09:36:07.884Z,14.50
2018-02-06T09:37:07.807Z,13.70
2018-02-06T09:39:01.064Z,13.50
2018-02-06T09:40:00.971Z,15.40
2018-02-06T09:41:54.208Z,18.90
2018-02-06T09:42:54.135Z,16.60
2018-02-06T09:44:47.388Z,17.00
2018-02-06T09:45:47.289Z,14.80
2018-02-06T09:47:40.545Z,15.30
2018-02-06T09:48:40.453Z,15.00
2018-02-06T09:50:34.692Z,15.50
2018-02-06T09:51:34.617Z,14.90
2018-02-06T09:53:27.875Z,17.10
2018-02-06T09:54:27.781Z,16.40
2018-02-06T09:56:21.031Z,15.70
2018-02-06T09:57:20.952Z,16.60
2018-02-06T09:59:14.214Z,15.00
2018-02-06T10:00:14.126Z,15.70
2018-02-06T10:02:07.376Z,15.20
2018-02-06T10:03:07.298Z,14.00
2018-02-06T10:05:00.567Z,15.50
2018-02-06T10:06:00.474Z,15.80
2018-02-06T10:07:53.735Z,15.60
2018-02-06T10:08:53.635Z,14.90
2018-02-06T10:10:46.889Z,14.90
2018-02-06T10:11:46.814Z,15.40
2018-02-06T10:13:40.192Z,15.70
2018-02-06T10:14:39.978Z,14.60
2018-02-06T10:16:33.217Z,16.60
2018-02-06T10:17:33.141Z,20.00
2018-02-06T10:19:26.417Z,16.40
2018-02-06T10:20:26.323Z,17.30
2018-02-06T10:22:19.563Z,18.70
2018-02-06T10:23:19.483Z,19.70
2018-02-06T10:25:12.740Z,16.20
2018-02-06T10:26:12.646Z,15.40
2018-02-06T10:28:06.023Z,16.50
2018-02-06T10:29:05.813Z,15.10
2018-02-06T10:30:59.047Z,16.30
2018-02-06T10:31:58.972Z,16.60
2018-02-06T10:33:52.234Z,17.70
2018-02-06T10:34:52.140Z,15.70
2018-02-06T10:36:45.380Z,20.80
2018-02-06T10:37:45.304Z,16.50
2018-02-06T10:39:38.682Z,18.30
2018-02-06T10:40:38.479Z,19.10
2018-02-06T10:42:31.729Z,18.60
2018-02-06T10:43:31.653Z,23.40
2018-02-06T10:45:24.910Z,17.10
2018-02-06T10:46:24.814Z,18.70
2018-02-06T10:48:18.073Z,17.20
2018-02-06T10:49:17.977Z,15.50
2018-02-06T10:51:11.342Z,16.90
2018-02-06T10:52:11.142Z,18.60
2018-02-06T10:54:04.424Z,17.10
2018-02-06T10:55:04.331Z,15.10
2018-02-06T10:56:57.571Z,21.90
2018-02-06T10:57:57.499Z,19.40
2018-02-06T10:59:50.752Z,15.30
2018-02-06T11:00:50.665Z,18.00
2018-02-06T11:02:43.912Z,16.70
2018-02-06T11:03:43.837Z,16.20
2018-02-06T11:05:37.095Z,15.70
2018-02-06T11:06:37.000Z,18.00
2018-02-06T11:08:30.259Z,16.70
2018-02-06T11:09:30.166Z,15.90
2018-02-06T11:11:23.412Z,17.10
2018-02-06T11:12:23.336Z,19.00
2018-02-06T11:14:16.596Z,16.90
2018-02-06T11:15:16.506Z,18.30
2018-02-06T11:17:09.742Z,17.80
2018-02-06T11:18:09.667Z,18.60
2018-02-06T11:20:02.922Z,17.20
2018-02-06T11:21:02.829Z,14.80
2018-02-06T11:22:56.069Z,15.70
2018-02-06T11:23:55.992Z,16.30
2018-02-06T11:25:49.248Z,14.60
2018-02-06T11:26:49.155Z,15.50
2018-02-06T11:28:42.422Z,16.60
2018-02-06T11:29:42.326Z,14.60
2018-02-06T11:31:35.568Z,17.00
2018-02-06T11:32:35.493Z,17.10
2018-02-06T11:34:28.874Z,14.60
2018-02-06T11:35:28.654Z,16.40
2018-02-06T11:37:22.018Z,16.20
2018-02-06T11:38:21.812Z,14.50
2018-02-06T11:40:15.079Z,18.70
2018-02-06T11:41:14.986Z,19.10
2018-02-06T11:43:08.224Z,14.60
2018-02-06T11:44:08.150Z,17.10
2018-02-06T11:46:01.534Z,15.70
2018-02-06T11:47:01.310Z,15.40
2018-02-06T11:48:54.585Z,19.10
2018-02-06T11:49:54.494Z,15.00
2018-02-06T11:51:47.721Z,15.70
2018-02-06T11:52:47.646Z,14.80
2018-02-06T11:54:40.908Z,18.70
2018-02-06T11:55:40.805Z,17.00
2018-02-06T11:57:34.053Z,16.40
2018-02-06T11:58:33.977Z,15.10
2018-02-06T12:00:27.239Z,15.10
2018-02-06T12:01:27.152Z,15.30
2018-02-06T12:03:20.458Z,17.50
2018-02-06T12:04:20.319Z,16.90
2018-02-06T12:06:13.704Z,16.00
2018-02-06T12:07:13.487Z,15.00
2018-02-06T12:09:06.743Z,16.90
2018-02-06T12:10:06.650Z,21.20
2018-02-06T12:11:59.895Z,15.30
2018-02-06T12:12:59.816Z,19.10
2018-02-06T12:14:53.073Z,15.70
2018-02-06T12:15:52.978Z,16.50
2018-02-06T12:17:46.339Z,23.60
2018-02-06T12:18:46.141Z,15.70
2018-02-06T12:20:39.404Z,12.70
2018-02-06T12:21:39.312Z,14.20
2018-02-06T12:23:32.550Z,14.20
2018-02-06T12:24:32.478Z,13.90
2018-02-06T12:26:25.735Z,15.00
2018-02-06T12:27:25.630Z,15.50
2018-02-06T12:29:18.895Z,14.10
2018-02-06T12:30:18.801Z,12.40
2018-02-06T12:32:12.040Z,13.30
2018-02-06T12:33:11.964Z,13.10
2018-02-06T12:35:06.231Z,15.90
2018-02-06T12:36:06.136Z,15.00
2018-02-06T12:37:59.374Z,15.00
2018-02-06T12:38:59.299Z,13.40
2018-02-06T12:40:52.552Z,13.10
2018-02-06T12:41:52.464Z,12.90
2018-02-06T12:43:45.718Z,17.20
2018-02-06T12:44:45.639Z,13.90
2018-02-06T12:46:38.896Z,14.00
2018-02-06T12:47:38.802Z,14.40
2018-02-06T12:49:32.181Z,14.60
2018-02-06T12:50:31.966Z,13.40
2018-02-06T12:52:25.209Z,14.90
2018-02-06T12:53:25.122Z,17.90
2018-02-06T12:55:18.421Z,14.40
2018-02-06T12:56:18.330Z,13.90
2018-02-06T12:58:12.565Z,12.70
2018-02-06T12:59:12.489Z,12.00
2018-02-06T13:01:05.764Z,13.20
2018-02-06T13:02:05.668Z,14.70
2018-02-06T13:03:58.905Z,13.50
2018-02-06T13:04:58.832Z,13.10
2018-02-06T13:06:53.098Z,14.10
2018-02-06T13:07:53.010Z,15.10
2018-02-06T13:09:46.263Z,13.40
2018-02-06T13:10:46.168Z,17.60
2018-02-06T13:12:39.404Z,16.00
2018-02-06T13:13:39.330Z,13.50
2018-02-06T13:15:33.596Z,18.40
2018-02-06T13:16:33.503Z,15.60
2018-02-06T13:18:26.862Z,14.20
2018-02-06T13:19:26.658Z,14.40
2018-02-06T13:21:20.043Z,15.80
2018-02-06T13:22:19.822Z,13.90
2018-02-06T13:24:13.074Z,13.10
2018-02-06T13:25:13.000Z,12.80
2018-02-06T13:27:06.269Z,14.00
2018-02-06T13:28:06.173Z,14.10
2018-02-06T13:29:59.434Z,13.70
2018-02-06T13:30:59.339Z,13.30
2018-02-06T13:32:52.692Z,15.60
2018-02-06T13:33:52.516Z,13.90
2018-02-06T13:35:45.886Z,15.70
2018-02-06T13:36:45.689Z,15.70
2018-02-06T13:38:38.939Z,16.60
2018-02-06T13:39:38.861Z,20.80
2018-02-06T13:41:32.130Z,14.80
2018-02-06T13:42:32.037Z,13.50
2018-02-06T13:44:25.291Z,17.60
2018-02-06T13:45:25.207Z,17.60
2018-02-06T13:47:18.479Z,16.50
2018-02-06T13:48:18.386Z,17.00
2018-02-06T13:50:11.644Z,14.40
2018-02-06T13:51:11.555Z,16.20
2018-02-06T13:53:04.798Z,13.90
2018-02-06T13:54:04.729Z,16.40
2018-02-06T13:55:58.112Z,12.70
2018-02-06T13:56:57.900Z,13.40
2018-02-06T13:58:51.265Z,12.20
2018-02-06T13:59:51.073Z,13.40
2018-02-06T14:01:45.452Z,13.00
2018-02-06T14:02:45.247Z,14.60
2018-02-06T14:04:38.494Z,14.10
2018-02-06T14:05:38.418Z,12.90
2018-02-06T14:07:31.690Z,13.50
2018-02-06T14:08:31.595Z,12.00
2018-02-06T14:10:24.975Z,15.60
2018-02-06T14:11:24.770Z,12.30
2018-02-06T14:13:18.130Z,12.40
2018-02-06T14:14:17.944Z,16.00
2018-02-06T14:16:11.201Z,17.10
2018-02-06T14:17:11.107Z,17.60
2018-02-06T14:19:04.404Z,15.50
2018-02-06T14:20:04.329Z,12.50
2018-02-06T14:21:57.588Z,17.80
2018-02-06T14:22:57.492Z,17.50
2018-02-06T14:24:50.734Z,15.10
2018-02-06T14:25:50.652Z,14.20
2018-02-06T14:27:43.912Z,14.70
2018-02-06T14:28:43.817Z,12.80
2018-02-06T14:30:37.077Z,12.30
2018-02-06T14:31:36.986Z,15.00
2018-02-06T14:33:30.235Z,15.00
2018-02-06T14:34:30.159Z,13.10
2018-02-06T14:36:23.416Z,14.40
2018-02-06T14:37:23.324Z,14.60
2018-02-06T14:39:16.568Z,12.80
2018-02-06T14:40:16.492Z,13.40
2018-02-06T14:42:09.800Z,15.70
2018-02-06T14:43:09.654Z,12.30
2018-02-06T14:45:03.013Z,13.20
2018-02-06T14:46:02.846Z,14.20
2018-02-06T14:47:56.102Z,13.10
2018-02-06T14:48:56.007Z,13.20
2018-02-06T14:50:49.267Z,15.30
2018-02-06T14:51:49.171Z,14.70
2018-02-06T14:53:42.531Z,13.70
2018-02-06T14:54:42.321Z,14.10
2018-02-06T14:56:35.584Z,19.30
2018-02-06T14:57:35.492Z,15.00
2018-02-06T14:59:28.850Z,15.60
2018-02-06T15:00:28.653Z,14.40
2018-02-06T15:02:21.907Z,13.50
2018-02-06T15:03:21.816Z,11.60
2018-02-06T15:05:15.052Z,13.50
2018-02-06T15:06:14.975Z,12.20
2018-02-06T15:08:08.231Z,14.20
2018-02-06T15:09:08.138Z,11.80
2018-02-06T15:11:01.392Z,11.10
2018-02-06T15:12:01.300Z,12.00
2018-02-06T15:13:54.661Z,11.80
2018-02-06T15:14:54.469Z,12.80
2018-02-06T15:16:47.718Z,11.70
2018-02-06T15:17:47.624Z,12.20
2018-02-06T15:19:40.867Z,12.70
2018-02-06T15:20:40.794Z,10.80
2018-02-06T15:22:34.050Z,13.40
2018-02-06T15:23:33.956Z,13.30
2018-02-06T15:25:27.202Z,15.50
2018-02-06T15:26:27.128Z,16.00
2018-02-06T15:28:20.438Z,14.50
2018-02-06T15:29:20.329Z,12.30
2018-02-06T15:31:13.585Z,13.90
2018-02-06T15:32:13.491Z,13.60
2018-02-06T15:34:06.731Z,13.10
2018-02-06T15:35:06.656Z,13.00
2018-02-06T15:37:00.038Z,15.80
2018-02-06T15:37:59.820Z,12.40
2018-02-06T15:39:53.052Z,12.50
2018-02-06T15:40:52.968Z,13.00
2018-02-06T15:42:46.351Z,11.80
2018-02-06T15:43:46.134Z,12.60
2018-02-06T15:45:39.373Z,11.80
2018-02-06T15:46:39.340Z,11.20
2018-02-06T15:48:32.591Z,11.90
2018-02-06T15:49:32.496Z,12.60
2018-02-06T15:51:25.753Z,12.00
2018-02-06T15:52:25.656Z,12.30
2018-02-06T15:54:18.893Z,14.80
2018-02-06T15:55:18.815Z,14.80
2018-02-06T15:57:12.070Z,13.20
2018-02-06T15:58:11.975Z,16.60
2018-02-06T16:00:05.337Z,12.40
2018-02-06T16:01:05.140Z,14.90
2018-02-06T16:02:58.517Z,16.10
2018-02-06T16:03:58.330Z,20.30
2018-02-06T16:05:51.686Z,14.30
2018-02-06T16:06:51.494Z,13.40
2018-02-06T16:08:44.749Z,13.50
2018-02-06T16:09:44.654Z,12.20
2018-02-06T16:11:38.031Z,20.30
2018-02-06T16:12:37.816Z,17.00
2018-02-06T16:14:31.053Z,15.60
2018-02-06T16:15:30.976Z,13.40
2018-02-06T16:17:24.228Z,12.70
2018-02-06T16:18:24.137Z,14.10
2018-02-06T16:20:17.496Z,13.10
2018-02-06T16:21:17.299Z,12.80
2018-02-06T16:23:10.554Z,14.60
2018-02-06T16:24:10.460Z,16.20
2018-02-06T16:26:03.846Z,14.20
2018-02-06T16:27:03.621Z,15.80
2018-02-06T16:28:56.876Z,14.30
2018-02-06T16:29:56.779Z,16.80
2018-02-06T16:31:50.035Z,11.00
2018-02-06T16:32:49.948Z,13.50
2018-02-06T16:34:43.179Z,13.50
2018-02-06T16:35:43.102Z,15.30
2018-02-06T16:37:36.481Z,12.70
2018-02-06T16:38:36.323Z,14.30
2018-02-06T16:40:29.567Z,15.90
2018-02-06T16:41:29.490Z,11.40
2018-02-06T16:43:22.742Z,12.50
2018-02-06T16:44:22.647Z,13.50
2018-02-06T16:46:15.886Z,14.20
2018-02-06T16:47:15.809Z,14.20
2018-02-06T16:49:09.071Z,13.90
2018-02-06T16:50:08.971Z,14.60
2018-02-06T16:52:02.351Z,12.20
2018-02-06T16:53:02.146Z,12.40
2018-02-06T16:54:55.564Z,12.30
2018-02-06T16:55:55.488Z,14.10
2018-02-06T16:57:48.775Z,12.60
2018-02-06T16:58:48.659Z,11.50
2018-02-06T17:00:41.897Z,11.20
2018-02-06T17:01:41.823Z,14.00
2018-02-06T17:03:35.198Z,13.60
2018-02-06T17:04:34.993Z,15.60
2018-02-06T17:06:28.228Z,12.80
2018-02-06T17:07:28.152Z,13.10
2018-02-06T17:09:22.415Z,11.40
2018-02-06T17:10:22.322Z,12.00
2018-02-06T17:12:15.586Z,12.40
2018-02-06T17:13:15.493Z,15.80
2018-02-06T17:15:08.852Z,16.50
2018-02-06T17:16:08.663Z,14.30
2018-02-06T17:18:01.930Z,13.10
2018-02-06T17:19:01.836Z,11.50
2018-02-06T17:20:54.698Z,13.80
2018-02-06T17:21:54.517Z,12.10
2018-02-06T17:23:47.776Z,14.40
2018-02-06T17:24:47.685Z,12.90
2018-02-06T17:26:40.924Z,12.50
2018-02-06T17:27:40.843Z,14.60
2018-02-06T17:29:34.112Z,14.90
2018-02-06T17:30:34.016Z,13.70
2018-02-06T17:32:27.396Z,14.20
2018-02-06T17:33:27.185Z,12.90
2018-02-06T17:35:20.544Z,13.80
2018-02-06T17:36:20.359Z,14.50
2018-02-06T17:38:13.623Z,13.50
2018-02-06T17:39:13.529Z,14.90
2018-02-06T17:41:06.789Z,19.00
2018-02-06T17:42:06.700Z,15.20
2018-02-06T17:43:59.964Z,14.10
2018-02-06T17:44:59.871Z,12.90
2018-02-06T17:46:53.119Z,13.30
2018-02-06T17:47:53.043Z,10.40
2018-02-06T17:49:46.306Z,15.50
2018-02-06T17:50:46.211Z,16.10
2018-02-06T17:52:39.582Z,14.30
2018-02-06T17:53:39.483Z,15.60
2018-02-06T17:55:32.844Z,14.80
2018-02-06T17:56:32.654Z,14.20
2018-02-06T17:58:25.920Z,13.70
2018-02-06T17:59:25.827Z,14.70
2018-02-06T18:01:19.072Z,12.30
2018-02-06T18:02:18.997Z,13.00
2018-02-06T18:04:12.262Z,14.00
2018-02-06T18:05:12.171Z,13.20
2018-02-06T18:07:05.565Z,14.30
2018-02-06T18:08:05.490Z,13.80
2018-02-06T18:09:58.750Z,15.40
2018-02-06T18:10:58.659Z,13.30
2018-02-06T18:12:51.932Z,18.30
2018-02-06T18:13:51.836Z,16.10
2018-02-06T18:15:45.079Z,15.80
2018-02-06T18:16:45.004Z,14.10
2018-02-06T18:18:38.269Z,14.20
2018-02-06T18:19:38.178Z,14.30
2018-02-06T18:21:31.562Z,14.30
2018-02-06T18:22:31.488Z,16.50
2018-02-06T18:24:24.740Z,13.00
2018-02-06T18:25:24.640Z,13.20
2018-02-06T18:27:18.007Z,12.10
2018-02-06T18:28:17.825Z,13.70
2018-02-06T18:30:11.071Z,16.30
2018-02-06T18:31:10.982Z,15.20
2018-02-06T18:33:04.246Z,15.60
2018-02-06T18:34:04.152Z,17.30
2018-02-06T18:35:57.563Z,15.10
2018-02-06T18:36:57.488Z,14.50
2018-02-06T18:38:50.759Z,15.40
2018-02-06T18:39:50.663Z,12.30
2018-02-06T18:41:43.912Z,16.70
2018-02-06T18:42:43.837Z,13.80
2018-02-06T18:44:37.102Z,13.40
2018-02-06T18:45:37.007Z,14.90
2018-02-06T18:47:30.255Z,17.10
2018-02-06T18:48:30.185Z,15.20
2018-02-06T18:50:23.586Z,16.10
2018-02-06T18:51:23.495Z,14.70
2018-02-06T18:53:16.758Z,17.00
2018-02-06T18:54:16.663Z,16.80
2018-02-06T18:56:09.917Z,17.10
2018-02-06T18:57:09.839Z,16.70
2018-02-06T18:59:03.106Z,14.00
2018-02-06T19:00:03.010Z,16.30
2018-02-06T19:01:56.261Z,14.20
2018-02-06T19:02:56.181Z,16.00
2018-02-06T19:04:49.614Z,15.80
2018-02-06T19:05:49.489Z,22.20
2018-02-06T19:07:42.736Z,18.90
2018-02-06T19:08:42.661Z,18.30
2018-02-06T19:10:35.920Z,16.60
2018-02-06T19:11:35.868Z,18.10
2018-02-06T19:13:29.092Z,17.20
2018-02-06T19:14:28.997Z,19.30
2018-02-06T19:16:22.247Z,17.10
2018-02-06T19:17:22.166Z,15.40
2018-02-06T19:19:15.576Z,22.60
2018-02-06T19:20:15.483Z,18.80
2018-02-06T19:22:08.844Z,18.10
2018-02-06T19:23:08.654Z,16.70
2018-02-06T19:25:01.920Z,19.90
2018-02-06T19:26:01.828Z,18.40
2018-02-06T19:27:55.081Z,16.10
2018-02-06T19:28:54.999Z,17.10
2018-02-06T19:30:48.256Z,19.00
2018-02-06T19:31:48.160Z,18.20
2018-02-06T19:33:41.640Z,16.60
2018-02-06T19:34:41.497Z,16.60
2018-02-06T19:36:34.733Z,16.40
2018-02-06T19:37:34.656Z,18.50
2018-02-06T19:39:27.913Z,18.30
2018-02-06T19:40:27.817Z,18.70
2018-02-06T19:42:21.058Z,18.40
2018-02-06T19:43:20.979Z,19.00
2018-02-06T19:45:14.236Z,17.90
2018-02-06T19:46:14.140Z,17.80
2018-02-06T19:48:07.576Z,19.90
2018-02-06T19:49:07.499Z,18.00
2018-02-06T19:51:00.759Z,17.10
2018-02-06T19:52:00.657Z,16.20
2018-02-06T19:53:53.915Z,20.90
2018-02-06T19:54:53.818Z,20.60
2018-02-06T19:56:47.179Z,18.80
2018-02-06T19:57:46.992Z,18.50
2018-02-06T19:59:40.248Z,18.80
2018-02-06T20:00:40.156Z,18.10
2018-02-06T20:02:34.017Z,15.50
2018-02-06T20:03:33.504Z,18.10
2018-02-06T20:05:26.759Z,17.80
2018-02-06T20:06:26.664Z,16.50
2018-02-06T20:08:20.924Z,17.50
2018-02-06T20:09:20.831Z,18.30
2018-02-06T20:11:14.105Z,21.80
2018-02-06T20:12:14.012Z,18.20
2018-02-06T20:14:07.279Z,16.80
2018-02-06T20:15:07.184Z,19.00
2018-02-06T20:17:00.421Z,16.30
2018-02-06T20:18:00.344Z,15.40
2018-02-06T20:19:53.599Z,16.30
2018-02-06T20:20:53.509Z,15.70
2018-02-06T20:22:47.746Z,19.30
2018-02-06T20:23:47.671Z,18.30
2018-02-06T20:25:41.048Z,17.20
2018-02-06T20:26:40.845Z,17.60
2018-02-06T20:28:34.227Z,20.30
2018-02-06T20:29:34.015Z,17.40
2018-02-06T20:31:27.263Z,16.70